sensor_id;sensor_type;location;lat;lon;timestamp;P1;durP1;ratioP1;P2;durP2;ratioP2
77055;SDS011;67471;44.918;8.614;2023-11-21T00:01:02;38.33;;;27.92;;
77055;SDS011;67471;44.918;8.614;2023-11-21T00:04:07;36.45;;;28.15;;
77055;SDS011;67471;44.918;8.614;2023-11-21T00:07:11;42.85;;;28.35;;
77055;SDS011;67471;44.918;8.614;2023-11-21T00:10:15;42.15;;;28.75;;
77055;SDS011;67471;44.918;8.614;2023-11-21T00:13:19;44.63;;;28.75;;
77055;SDS011;67471;44.918;8.614;2023-11-21T00:16:23;40.55;;;30.20;;
77055;SDS011;67471;44.918;8.614;2023-11-21T00:19:28;46.65;;;33.20;;
77055;SDS011;67471;44.918;8.614;2023-11-21T00:22:35;44.75;;;31.98;;
77055;SDS011;67471;44.918;8.614;2023-11-21T00:25:39;51.15;;;35.83;;
77055;SDS011;67471;44.918;8.614;2023-11-21T00:28:43;54.40;;;37.17;;
77055;SDS011;67471;44.918;8.614;2023-11-21T00:31:47;58.90;;;39.90;;
77055;SDS011;67471;44.918;8.614;2023-11-21T00:34:51;57.25;;;40.92;;
77055;SDS011;67471;44.918;8.614;2023-11-21T00:37:55;58.92;;;41.17;;
77055;SDS011;67471;44.918;8.614;2023-11-21T00:40:59;56.92;;;41.92;;
77055;SDS011;67471;44.918;8.614;2023-11-21T00:44:03;57.75;;;42.45;;
77055;SDS011;67471;44.918;8.614;2023-11-21T00:47:08;54.53;;;41.55;;
77055;SDS011;67471;44.918;8.614;2023-11-21T00:50:11;59.15;;;42.67;;
77055;SDS011;67471;44.918;8.614;2023-11-21T00:53:15;65.70;;;46.90;;
77055;SDS011;67471;44.918;8.614;2023-11-21T00:56:19;63.63;;;44.47;;
77055;SDS011;67471;44.918;8.614;2023-11-21T00:59:23;62.72;;;45.63;;
77055;SDS011;67471;44.918;8.614;2023-11-21T01:02:27;66.40;;;47.10;;
77055;SDS011;67471;44.918;8.614;2023-11-21T01:05:32;63.45;;;47.10;;
77055;SDS011;67471;44.918;8.614;2023-11-21T01:08:35;65.85;;;47.47;;
77055;SDS011;67471;44.918;8.614;2023-11-21T01:11:40;63.47;;;46.25;;
77055;SDS011;67471;44.918;8.614;2023-11-21T01:14:45;69.18;;;46.13;;
77055;SDS011;67471;44.918;8.614;2023-11-21T01:17:49;63.80;;;47.80;;
77055;SDS011;67471;44.918;8.614;2023-11-21T01:20:53;62.00;;;45.75;;
77055;SDS011;67471;44.918;8.614;2023-11-21T01:23:56;64.65;;;46.30;;
77055;SDS011;67471;44.918;8.614;2023-11-21T01:27:00;67.32;;;47.33;;
77055;SDS011;67471;44.918;8.614;2023-11-21T01:30:04;61.28;;;46.20;;
77055;SDS011;67471;44.918;8.614;2023-11-21T01:33:11;64.15;;;46.13;;
77055;SDS011;67471;44.918;8.614;2023-11-21T01:36:15;62.95;;;45.42;;
77055;SDS011;67471;44.918;8.614;2023-11-21T01:39:19;65.57;;;46.53;;
77055;SDS011;67471;44.918;8.614;2023-11-21T01:42:27;63.22;;;47.45;;
77055;SDS011;67471;44.918;8.614;2023-11-21T01:45:32;70.60;;;47.65;;
77055;SDS011;67471;44.918;8.614;2023-11-21T01:48:36;69.40;;;47.15;;
77055;SDS011;67471;44.918;8.614;2023-11-21T01:51:42;65.90;;;48.05;;
77055;SDS011;67471;44.918;8.614;2023-11-21T01:54:47;65.60;;;47.42;;
77055;SDS011;67471;44.918;8.614;2023-11-21T01:57:50;66.45;;;46.88;;
77055;SDS011;67471;44.918;8.614;2023-11-21T02:00:54;64.75;;;47.53;;
77055;SDS011;67471;44.918;8.614;2023-11-21T02:03:59;61.63;;;44.67;;
77055;SDS011;67471;44.918;8.614;2023-11-21T02:07:03;63.35;;;46.65;;
77055;SDS011;67471;44.918;8.614;2023-11-21T02:10:09;63.30;;;44.88;;
77055;SDS011;67471;44.918;8.614;2023-11-21T02:13:18;63.37;;;46.30;;
77055;SDS011;67471;44.918;8.614;2023-11-21T02:16:21;64.30;;;46.63;;
77055;SDS011;67471;44.918;8.614;2023-11-21T02:19:26;61.55;;;44.85;;
77055;SDS011;67471;44.918;8.614;2023-11-21T02:22:30;64.13;;;45.80;;
77055;SDS011;67471;44.918;8.614;2023-11-21T02:25:40;64.55;;;45.17;;
77055;SDS011;67471;44.918;8.614;2023-11-21T02:28:45;65.28;;;44.25;;
77055;SDS011;67471;44.918;8.614;2023-11-21T02:31:51;70.75;;;45.83;;
77055;SDS011;67471;44.918;8.614;2023-11-21T02:34:58;59.85;;;45.25;;
77055;SDS011;67471;44.918;8.614;2023-11-21T02:38:06;62.13;;;45.58;;
77055;SDS011;67471;44.918;8.614;2023-11-21T02:41:10;62.00;;;44.35;;
77055;SDS011;67471;44.918;8.614;2023-11-21T02:44:14;67.05;;;45.70;;
77055;SDS011;67471;44.918;8.614;2023-11-21T02:47:18;61.80;;;44.60;;
77055;SDS011;67471;44.918;8.614;2023-11-21T02:50:22;63.97;;;44.47;;
77055;SDS011;67471;44.918;8.614;2023-11-21T02:53:26;65.63;;;45.55;;
77055;SDS011;67471;44.918;8.614;2023-11-21T02:56:29;63.17;;;44.88;;
77055;SDS011;67471;44.918;8.614;2023-11-21T02:59:33;61.88;;;43.88;;
77055;SDS011;67471;44.918;8.614;2023-11-21T03:02:38;66.90;;;45.47;;
77055;SDS011;67471;44.918;8.614;2023-11-21T03:05:42;65.22;;;46.47;;
77055;SDS011;67471;44.918;8.614;2023-11-21T03:08:46;60.92;;;44.30;;
77055;SDS011;67471;44.918;8.614;2023-11-21T03:11:50;65.00;;;45.40;;
77055;SDS011;67471;44.918;8.614;2023-11-21T03:14:53;67.60;;;46.55;;
77055;SDS011;67471;44.918;8.614;2023-11-21T03:17:58;63.67;;;45.45;;
77055;SDS011;67471;44.918;8.614;2023-11-21T03:21:02;64.50;;;44.58;;
77055;SDS011;67471;44.918;8.614;2023-11-21T03:24:06;65.47;;;45.55;;
77055;SDS011;67471;44.918;8.614;2023-11-21T03:27:10;64.80;;;44.70;;
77055;SDS011;67471;44.918;8.614;2023-11-21T03:30:15;65.97;;;44.92;;
77055;SDS011;67471;44.918;8.614;2023-11-21T03:33:20;61.03;;;43.75;;
77055;SDS011;67471;44.918;8.614;2023-11-21T03:36:24;60.83;;;43.75;;
77055;SDS011;67471;44.918;8.614;2023-11-21T03:39:30;61.42;;;43.85;;
77055;SDS011;67471;44.918;8.614;2023-11-21T03:42:34;63.15;;;42.95;;
77055;SDS011;67471;44.918;8.614;2023-11-21T03:45:38;58.90;;;42.30;;
77055;SDS011;67471;44.918;8.614;2023-11-21T03:48:44;66.88;;;44.33;;
77055;SDS011;67471;44.918;8.614;2023-11-21T03:51:48;62.58;;;43.08;;
77055;SDS011;67471;44.918;8.614;2023-11-21T03:54:52;59.58;;;42.47;;
77055;SDS011;67471;44.918;8.614;2023-11-21T03:57:55;64.47;;;43.03;;
77055;SDS011;67471;44.918;8.614;2023-11-21T04:00:59;64.60;;;44.15;;
77055;SDS011;67471;44.918;8.614;2023-11-21T04:04:03;62.42;;;42.63;;
77055;SDS011;67471;44.918;8.614;2023-11-21T04:07:07;61.70;;;44.17;;
77055;SDS011;67471;44.918;8.614;2023-11-21T04:10:11;61.00;;;44.15;;
77055;SDS011;67471;44.918;8.614;2023-11-21T04:13:16;61.85;;;42.83;;
77055;SDS011;67471;44.918;8.614;2023-11-21T04:16:19;65.30;;;42.67;;
77055;SDS011;67471;44.918;8.614;2023-11-21T04:19:23;61.72;;;42.97;;
77055;SDS011;67471;44.918;8.614;2023-11-21T04:22:27;62.67;;;43.15;;
77055;SDS011;67471;44.918;8.614;2023-11-21T04:25:31;65.57;;;45.28;;
77055;SDS011;67471;44.918;8.614;2023-11-21T04:28:35;62.03;;;42.10;;
77055;SDS011;67471;44.918;8.614;2023-11-21T04:31:39;61.83;;;43.95;;
77055;SDS011;67471;44.918;8.614;2023-11-21T04:34:43;65.35;;;45.08;;
77055;SDS011;67471;44.918;8.614;2023-11-21T04:37:46;61.53;;;43.63;;
77055;SDS011;67471;44.918;8.614;2023-11-21T04:40:50;71.85;;;44.03;;
77055;SDS011;67471;44.918;8.614;2023-11-21T04:43:54;63.17;;;43.88;;
77055;SDS011;67471;44.918;8.614;2023-11-21T04:46:58;67.97;;;44.85;;
77055;SDS011;67471;44.918;8.614;2023-11-21T04:50:02;64.82;;;45.80;;
77055;SDS011;67471;44.918;8.614;2023-11-21T04:53:07;61.05;;;44.60;;
77055;SDS011;67471;44.918;8.614;2023-11-21T04:56:11;66.20;;;45.22;;
77055;SDS011;67471;44.918;8.614;2023-11-21T04:59:15;61.50;;;43.45;;
77055;SDS011;67471;44.918;8.614;2023-11-21T05:02:18;66.43;;;45.08;;
77055;SDS011;67471;44.918;8.614;2023-11-21T05:05:22;63.92;;;44.00;;
77055;SDS011;67471;44.918;8.614;2023-11-21T05:08:26;61.60;;;43.78;;
77055;SDS011;67471;44.918;8.614;2023-11-21T05:11:30;64.55;;;45.50;;
77055;SDS011;67471;44.918;8.614;2023-11-21T05:14:35;68.60;;;44.90;;
77055;SDS011;67471;44.918;8.614;2023-11-21T05:17:38;62.08;;;44.72;;
77055;SDS011;67471;44.918;8.614;2023-11-21T05:20:45;61.53;;;43.20;;
77055;SDS011;67471;44.918;8.614;2023-11-21T05:23:50;64.15;;;44.10;;
77055;SDS011;67471;44.918;8.614;2023-11-21T05:26:54;65.68;;;44.00;;
77055;SDS011;67471;44.918;8.614;2023-11-21T05:30:00;65.30;;;45.45;;
77055;SDS011;67471;44.918;8.614;2023-11-21T05:33:06;66.30;;;45.85;;
77055;SDS011;67471;44.918;8.614;2023-11-21T05:36:10;63.45;;;44.55;;
77055;SDS011;67471;44.918;8.614;2023-11-21T05:39:14;65.18;;;44.85;;
77055;SDS011;67471;44.918;8.614;2023-11-21T05:42:20;68.93;;;45.97;;
77055;SDS011;67471;44.918;8.614;2023-11-21T05:45:24;73.05;;;46.72;;
77055;SDS011;67471;44.918;8.614;2023-11-21T05:48:28;72.20;;;46.85;;
77055;SDS011;67471;44.918;8.614;2023-11-21T05:51:32;70.85;;;46.92;;
77055;SDS011;67471;44.918;8.614;2023-11-21T05:54:35;66.57;;;46.00;;
77055;SDS011;67471;44.918;8.614;2023-11-21T05:57:40;69.57;;;45.55;;
77055;SDS011;67471;44.918;8.614;2023-11-21T06:00:45;65.05;;;45.90;;
77055;SDS011;67471;44.918;8.614;2023-11-21T06:03:49;65.72;;;45.40;;
77055;SDS011;67471;44.918;8.614;2023-11-21T06:06:53;67.70;;;44.97;;
77055;SDS011;67471;44.918;8.614;2023-11-21T06:09:56;64.85;;;44.50;;
77055;SDS011;67471;44.918;8.614;2023-11-21T06:13:00;67.25;;;46.65;;
77055;SDS011;67471;44.918;8.614;2023-11-21T06:16:04;70.85;;;46.22;;
77055;SDS011;67471;44.918;8.614;2023-11-21T06:19:08;80.93;;;51.67;;
77055;SDS011;67471;44.918;8.614;2023-11-21T06:22:13;70.55;;;47.03;;
77055;SDS011;67471;44.918;8.614;2023-11-21T06:25:17;66.35;;;45.85;;
77055;SDS011;67471;44.918;8.614;2023-11-21T06:28:21;69.25;;;46.28;;
77055;SDS011;67471;44.918;8.614;2023-11-21T06:31:24;67.75;;;45.33;;
77055;SDS011;67471;44.918;8.614;2023-11-21T06:34:28;64.15;;;44.58;;
77055;SDS011;67471;44.918;8.614;2023-11-21T06:37:32;72.75;;;46.00;;
77055;SDS011;67471;44.918;8.614;2023-11-21T06:40:36;66.38;;;45.60;;
77055;SDS011;67471;44.918;8.614;2023-11-21T06:43:40;71.13;;;44.25;;
77055;SDS011;67471;44.918;8.614;2023-11-21T06:46:43;64.13;;;43.75;;
77055;SDS011;67471;44.918;8.614;2023-11-21T06:49:48;70.63;;;45.33;;
77055;SDS011;67471;44.918;8.614;2023-11-21T06:52:52;66.28;;;45.95;;
77055;SDS011;67471;44.918;8.614;2023-11-21T06:55:56;67.53;;;44.78;;
77055;SDS011;67471;44.918;8.614;2023-11-21T06:59:03;64.75;;;45.15;;
77055;SDS011;67471;44.918;8.614;2023-11-21T07:02:09;62.67;;;44.08;;
77055;SDS011;67471;44.918;8.614;2023-11-21T07:05:12;68.40;;;46.67;;
77055;SDS011;67471;44.918;8.614;2023-11-21T07:08:17;67.25;;;46.28;;
77055;SDS011;67471;44.918;8.614;2023-11-21T07:11:21;74.55;;;46.80;;
77055;SDS011;67471;44.918;8.614;2023-11-21T07:14:26;69.97;;;44.60;;
77055;SDS011;67471;44.918;8.614;2023-11-21T07:17:29;64.32;;;46.75;;
77055;SDS011;67471;44.918;8.614;2023-11-21T07:20:34;65.75;;;44.88;;
77055;SDS011;67471;44.918;8.614;2023-11-21T07:23:38;69.07;;;45.85;;
77055;SDS011;67471;44.918;8.614;2023-11-21T07:26:42;62.17;;;44.40;;
77055;SDS011;67471;44.918;8.614;2023-11-21T07:29:46;67.82;;;44.33;;
77055;SDS011;67471;44.918;8.614;2023-11-21T07:32:51;71.50;;;45.90;;
77055;SDS011;67471;44.918;8.614;2023-11-21T07:35:55;63.83;;;43.97;;
77055;SDS011;67471;44.918;8.614;2023-11-21T07:38:59;63.35;;;43.47;;
77055;SDS011;67471;44.918;8.614;2023-11-21T07:42:03;62.95;;;41.80;;
77055;SDS011;67471;44.918;8.614;2023-11-21T07:45:08;61.70;;;42.15;;
77055;SDS011;67471;44.918;8.614;2023-11-21T07:48:12;59.47;;;41.08;;
77055;SDS011;67471;44.918;8.614;2023-11-21T07:51:16;66.30;;;42.80;;
77055;SDS011;67471;44.918;8.614;2023-11-21T07:54:19;56.92;;;40.75;;
77055;SDS011;67471;44.918;8.614;2023-11-21T07:57:24;62.15;;;43.80;;
77055;SDS011;67471;44.918;8.614;2023-11-21T08:00:29;60.33;;;41.00;;
77055;SDS011;67471;44.918;8.614;2023-11-21T08:03:34;62.40;;;41.25;;
77055;SDS011;67471;44.918;8.614;2023-11-21T08:06:38;59.72;;;41.17;;
77055;SDS011;67471;44.918;8.614;2023-11-21T08:09:42;56.88;;;40.55;;
77055;SDS011;67471;44.918;8.614;2023-11-21T08:12:47;67.07;;;43.58;;
77055;SDS011;67471;44.918;8.614;2023-11-21T08:15:55;62.58;;;42.45;;
77055;SDS011;67471;44.918;8.614;2023-11-21T08:18:59;59.03;;;41.42;;
77055;SDS011;67471;44.918;8.614;2023-11-21T08:22:03;61.25;;;41.60;;
77055;SDS011;67471;44.918;8.614;2023-11-21T08:25:07;58.63;;;41.58;;
77055;SDS011;67471;44.918;8.614;2023-11-21T08:28:12;56.67;;;39.72;;
77055;SDS011;67471;44.918;8.614;2023-11-21T08:31:23;60.15;;;41.47;;
77055;SDS011;67471;44.918;8.614;2023-11-21T08:34:27;62.05;;;41.65;;
77055;SDS011;67471;44.918;8.614;2023-11-21T08:37:31;61.05;;;40.35;;
77055;SDS011;67471;44.918;8.614;2023-11-21T08:40:36;63.22;;;41.25;;
77055;SDS011;67471;44.918;8.614;2023-11-21T08:43:40;59.63;;;40.30;;
77055;SDS011;67471;44.918;8.614;2023-11-21T08:46:44;59.05;;;40.42;;
77055;SDS011;67471;44.918;8.614;2023-11-21T08:49:51;58.22;;;40.03;;
77055;SDS011;67471;44.918;8.614;2023-11-21T08:52:56;63.13;;;40.80;;
77055;SDS011;67471;44.918;8.614;2023-11-21T08:56:00;62.35;;;42.97;;
77055;SDS011;67471;44.918;8.614;2023-11-21T08:59:05;57.85;;;41.25;;
77055;SDS011;67471;44.918;8.614;2023-11-21T09:02:09;58.63;;;40.30;;
77055;SDS011;67471;44.918;8.614;2023-11-21T09:05:13;58.10;;;40.83;;
77055;SDS011;67471;44.918;8.614;2023-11-21T09:08:17;58.20;;;41.22;;
77055;SDS011;67471;44.918;8.614;2023-11-21T09:11:21;60.78;;;40.88;;
77055;SDS011;67471;44.918;8.614;2023-11-21T09:14:25;56.60;;;40.88;;
77055;SDS011;67471;44.918;8.614;2023-11-21T09:17:29;64.72;;;42.67;;
77055;SDS011;67471;44.918;8.614;2023-11-21T09:20:32;58.63;;;41.22;;
77055;SDS011;67471;44.918;8.614;2023-11-21T09:23:36;61.33;;;42.72;;
77055;SDS011;67471;44.918;8.614;2023-11-21T09:26:40;59.80;;;41.80;;
77055;SDS011;67471;44.918;8.614;2023-11-21T09:29:44;64.07;;;41.65;;
77055;SDS011;67471;44.918;8.614;2023-11-21T09:32:48;60.22;;;41.72;;
77055;SDS011;67471;44.918;8.614;2023-11-21T09:35:53;64.85;;;43.53;;
77055;SDS011;67471;44.918;8.614;2023-11-21T09:38:57;60.10;;;41.80;;
77055;SDS011;67471;44.918;8.614;2023-11-21T09:42:08;70.38;;;46.05;;
77055;SDS011;67471;44.918;8.614;2023-11-21T09:45:17;58.03;;;42.20;;
77055;SDS011;67471;44.918;8.614;2023-11-21T09:51:28;61.20;;;42.17;;
77055;SDS011;67471;44.918;8.614;2023-11-21T09:54:36;60.50;;;40.75;;
77055;SDS011;67471;44.918;8.614;2023-11-21T09:57:40;62.75;;;42.28;;
77055;SDS011;67471;44.918;8.614;2023-11-21T10:00:45;58.42;;;42.20;;
77055;SDS011;67471;44.918;8.614;2023-11-21T10:03:50;63.30;;;43.35;;
77055;SDS011;67471;44.918;8.614;2023-11-21T10:06:54;61.75;;;42.67;;
77055;SDS011;67471;44.918;8.614;2023-11-21T10:09:58;69.22;;;44.65;;
77055;SDS011;67471;44.918;8.614;2023-11-21T10:13:04;60.92;;;42.47;;
77055;SDS011;67471;44.918;8.614;2023-11-21T10:16:10;62.47;;;44.17;;
77055;SDS011;67471;44.918;8.614;2023-11-21T10:19:18;66.53;;;44.03;;
77055;SDS011;67471;44.918;8.614;2023-11-21T10:22:23;59.88;;;43.65;;
77055;SDS011;67471;44.918;8.614;2023-11-21T10:25:27;62.53;;;42.50;;
77055;SDS011;67471;44.918;8.614;2023-11-21T10:28:34;64.03;;;43.38;;
77055;SDS011;67471;44.918;8.614;2023-11-21T10:31:40;59.90;;;44.22;;
77055;SDS011;67471;44.918;8.614;2023-11-21T10:34:55;68.85;;;45.97;;
77055;SDS011;67471;44.918;8.614;2023-11-21T10:38:02;64.72;;;44.63;;
77055;SDS011;67471;44.918;8.614;2023-11-21T10:41:09;67.82;;;46.20;;
77055;SDS011;67471;44.918;8.614;2023-11-21T10:44:15;63.97;;;43.75;;
77055;SDS011;67471;44.918;8.614;2023-11-21T10:47:23;60.88;;;44.42;;
77055;SDS011;67471;44.918;8.614;2023-11-21T10:50:27;60.92;;;43.83;;
77055;SDS011;67471;44.918;8.614;2023-11-21T10:53:31;63.60;;;43.63;;
77055;SDS011;67471;44.918;8.614;2023-11-21T10:56:35;68.05;;;46.97;;
77055;SDS011;67471;44.918;8.614;2023-11-21T10:59:46;65.70;;;44.67;;
77055;SDS011;67471;44.918;8.614;2023-11-21T11:02:51;65.07;;;44.17;;
77055;SDS011;67471;44.918;8.614;2023-11-21T11:05:57;67.03;;;46.72;;
77055;SDS011;67471;44.918;8.614;2023-11-21T11:09:01;62.47;;;44.15;;
77055;SDS011;67471;44.918;8.614;2023-11-21T11:12:06;64.22;;;43.72;;
77055;SDS011;67471;44.918;8.614;2023-11-21T11:15:10;66.70;;;46.50;;
77055;SDS011;67471;44.918;8.614;2023-11-21T11:18:15;78.97;;;50.67;;
77055;SDS011;67471;44.918;8.614;2023-11-21T11:27:50;65.72;;;45.28;;
77055;SDS011;67471;44.918;8.614;2023-11-21T11:40:38;71.20;;;47.97;;
77055;SDS011;67471;44.918;8.614;2023-11-21T11:43:48;69.38;;;47.33;;
77055;SDS011;67471;44.918;8.614;2023-11-21T11:46:52;68.78;;;47.30;;
77055;SDS011;67471;44.918;8.614;2023-11-21T11:53:16;71.75;;;47.47;;
77055;SDS011;67471;44.918;8.614;2023-11-21T11:56:28;70.03;;;46.70;;
77055;SDS011;67471;44.918;8.614;2023-11-21T12:03:14;65.72;;;47.00;;
77055;SDS011;67471;44.918;8.614;2023-11-21T12:06:18;71.45;;;47.53;;
77055;SDS011;67471;44.918;8.614;2023-11-21T12:09:36;68.00;;;46.05;;
77055;SDS011;67471;44.918;8.614;2023-11-21T12:12:47;69.88;;;45.83;;
77055;SDS011;67471;44.918;8.614;2023-11-21T12:16:00;59.95;;;41.50;;
77055;SDS011;67471;44.918;8.614;2023-11-21T12:19:03;59.78;;;38.72;;
77055;SDS011;67471;44.918;8.614;2023-11-21T12:22:07;55.10;;;35.13;;
77055;SDS011;67471;44.918;8.614;2023-11-21T12:25:12;54.28;;;33.78;;
77055;SDS011;67471;44.918;8.614;2023-11-21T12:28:19;45.90;;;28.77;;
77055;SDS011;67471;44.918;8.614;2023-11-21T12:31:23;49.53;;;29.55;;
77055;SDS011;67471;44.918;8.614;2023-11-21T12:34:26;50.17;;;28.63;;
77055;SDS011;67471;44.918;8.614;2023-11-21T12:37:30;41.88;;;25.00;;
77055;SDS011;67471;44.918;8.614;2023-11-21T12:40:35;44.25;;;25.50;;
77055;SDS011;67471;44.918;8.614;2023-11-21T12:43:38;46.15;;;25.48;;
77055;SDS011;67471;44.918;8.614;2023-11-21T12:46:43;45.90;;;25.48;;
77055;SDS011;67471;44.918;8.614;2023-11-21T12:49:48;47.15;;;26.13;;
77055;SDS011;67471;44.918;8.614;2023-11-21T12:52:52;43.80;;;25.88;;
77055;SDS011;67471;44.918;8.614;2023-11-21T12:55:59;46.05;;;26.20;;
77055;SDS011;67471;44.918;8.614;2023-11-21T12:59:04;46.75;;;27.42;;
77055;SDS011;67471;44.918;8.614;2023-11-21T13:02:08;44.47;;;28.42;;
77055;SDS011;67471;44.918;8.614;2023-11-21T13:05:12;46.60;;;28.55;;
77055;SDS011;67471;44.918;8.614;2023-11-21T13:08:25;49.45;;;29.45;;
77055;SDS011;67471;44.918;8.614;2023-11-21T13:11:29;53.00;;;29.75;;
77055;SDS011;67471;44.918;8.614;2023-11-21T13:14:36;47.17;;;29.33;;
77055;SDS011;67471;44.918;8.614;2023-11-21T13:17:40;50.28;;;29.15;;
77055;SDS011;67471;44.918;8.614;2023-11-21T13:20:44;50.15;;;28.88;;
77055;SDS011;67471;44.918;8.614;2023-11-21T13:23:49;48.17;;;28.08;;
77055;SDS011;67471;44.918;8.614;2023-11-21T13:26:56;46.13;;;28.65;;
77055;SDS011;67471;44.918;8.614;2023-11-21T13:30:00;42.97;;;26.98;;
77055;SDS011;67471;44.918;8.614;2023-11-21T13:33:04;45.63;;;27.60;;
77055;SDS011;67471;44.918;8.614;2023-11-21T13:36:10;46.13;;;28.33;;
77055;SDS011;67471;44.918;8.614;2023-11-21T13:39:17;51.33;;;29.60;;
77055;SDS011;67471;44.918;8.614;2023-11-21T13:42:22;45.45;;;27.63;;
77055;SDS011;67471;44.918;8.614;2023-11-21T13:45:28;45.50;;;29.10;;
77055;SDS011;67471;44.918;8.614;2023-11-21T13:48:33;48.67;;;28.85;;
77055;SDS011;67471;44.918;8.614;2023-11-21T13:51:46;43.60;;;26.92;;
77055;SDS011;67471;44.918;8.614;2023-11-21T13:54:53;44.65;;;26.30;;
77055;SDS011;67471;44.918;8.614;2023-11-21T13:57:57;42.95;;;27.08;;
77055;SDS011;67471;44.918;8.614;2023-11-21T14:01:02;42.90;;;26.55;;
77055;SDS011;67471;44.918;8.614;2023-11-21T14:04:09;43.78;;;26.08;;
77055;SDS011;67471;44.918;8.614;2023-11-21T14:07:22;38.33;;;24.45;;
77055;SDS011;67471;44.918;8.614;2023-11-21T14:10:35;43.60;;;24.50;;
77055;SDS011;67471;44.918;8.614;2023-11-21T14:14:00;37.05;;;23.40;;
77055;SDS011;67471;44.918;8.614;2023-11-21T14:17:05;40.50;;;24.75;;
77055;SDS011;67471;44.918;8.614;2023-11-21T14:20:10;43.22;;;23.52;;
77055;SDS011;67471;44.918;8.614;2023-11-21T14:23:18;41.28;;;24.77;;
77055;SDS011;67471;44.918;8.614;2023-11-21T14:26:23;42.92;;;24.83;;
77055;SDS011;67471;44.918;8.614;2023-11-21T14:29:28;45.35;;;26.10;;
77055;SDS011;67471;44.918;8.614;2023-11-21T14:32:33;42.42;;;27.75;;
77055;SDS011;67471;44.918;8.614;2023-11-21T14:35:36;43.95;;;25.75;;
77055;SDS011;67471;44.918;8.614;2023-11-21T14:38:41;48.40;;;29.45;;
77055;SDS011;67471;44.918;8.614;2023-11-21T14:41:46;47.72;;;28.08;;
77055;SDS011;67471;44.918;8.614;2023-11-21T14:44:49;54.88;;;28.65;;
77055;SDS011;67471;44.918;8.614;2023-11-21T14:47:54;46.08;;;28.05;;
77055;SDS011;67471;44.918;8.614;2023-11-21T14:51:19;50.10;;;29.48;;
77055;SDS011;67471;44.918;8.614;2023-11-21T14:54:26;51.55;;;29.67;;
77055;SDS011;67471;44.918;8.614;2023-11-21T14:57:43;48.50;;;30.17;;
77055;SDS011;67471;44.918;8.614;2023-11-21T15:00:53;48.92;;;29.55;;
77055;SDS011;67471;44.918;8.614;2023-11-21T15:04:01;47.78;;;30.23;;
77055;SDS011;67471;44.918;8.614;2023-11-21T15:07:05;53.53;;;30.63;;
77055;SDS011;67471;44.918;8.614;2023-11-21T15:10:09;52.17;;;30.75;;
77055;SDS011;67471;44.918;8.614;2023-11-21T15:13:18;48.53;;;29.58;;
77055;SDS011;67471;44.918;8.614;2023-11-21T15:16:22;49.28;;;29.98;;
77055;SDS011;67471;44.918;8.614;2023-11-21T15:19:26;54.47;;;29.92;;
77055;SDS011;67471;44.918;8.614;2023-11-21T15:22:31;54.42;;;30.88;;
77055;SDS011;67471;44.918;8.614;2023-11-21T15:25:35;50.55;;;31.80;;
77055;SDS011;67471;44.918;8.614;2023-11-21T15:28:39;49.20;;;31.90;;
77055;SDS011;67471;44.918;8.614;2023-11-21T15:31:43;51.35;;;30.38;;
77055;SDS011;67471;44.918;8.614;2023-11-21T15:34:51;55.97;;;33.43;;
77055;SDS011;67471;44.918;8.614;2023-11-21T15:37:56;55.50;;;33.08;;
77055;SDS011;67471;44.918;8.614;2023-11-21T15:41:02;57.10;;;35.00;;
77055;SDS011;67471;44.918;8.614;2023-11-21T15:44:06;60.83;;;32.83;;
77055;SDS011;67471;44.918;8.614;2023-11-21T15:47:13;56.25;;;33.33;;
77055;SDS011;67471;44.918;8.614;2023-11-21T15:50:16;52.17;;;31.92;;
77055;SDS011;67471;44.918;8.614;2023-11-21T15:53:20;52.40;;;32.33;;
77055;SDS011;67471;44.918;8.614;2023-11-21T15:56:24;63.17;;;35.70;;
77055;SDS011;67471;44.918;8.614;2023-11-21T15:59:28;55.60;;;32.75;;
77055;SDS011;67471;44.918;8.614;2023-11-21T16:02:34;54.28;;;33.80;;
77055;SDS011;67471;44.918;8.614;2023-11-21T16:05:39;61.83;;;34.20;;
77055;SDS011;67471;44.918;8.614;2023-11-21T16:08:43;61.55;;;34.95;;
77055;SDS011;67471;44.918;8.614;2023-11-21T16:11:48;57.17;;;34.45;;
77055;SDS011;67471;44.918;8.614;2023-11-21T16:14:54;56.75;;;33.58;;
77055;SDS011;67471;44.918;8.614;2023-11-21T16:17:58;57.42;;;34.13;;
77055;SDS011;67471;44.918;8.614;2023-11-21T16:21:02;59.40;;;35.42;;
77055;SDS011;67471;44.918;8.614;2023-11-21T16:24:06;59.03;;;34.47;;
77055;SDS011;67471;44.918;8.614;2023-11-21T16:27:10;56.25;;;34.85;;
77055;SDS011;67471;44.918;8.614;2023-11-21T16:30:14;63.78;;;36.58;;
77055;SDS011;67471;44.918;8.614;2023-11-21T16:33:17;64.43;;;35.92;;
77055;SDS011;67471;44.918;8.614;2023-11-21T16:36:22;60.05;;;36.15;;
77055;SDS011;67471;44.918;8.614;2023-11-21T16:39:26;60.53;;;37.03;;
77055;SDS011;67471;44.918;8.614;2023-11-21T16:42:31;65.70;;;37.92;;
77055;SDS011;67471;44.918;8.614;2023-11-21T16:45:36;65.70;;;37.35;;
77055;SDS011;67471;44.918;8.614;2023-11-21T16:48:40;74.88;;;40.42;;
77055;SDS011;67471;44.918;8.614;2023-11-21T16:51:44;70.03;;;39.05;;
77055;SDS011;67471;44.918;8.614;2023-11-21T16:54:51;68.72;;;39.03;;
77055;SDS011;67471;44.918;8.614;2023-11-21T16:57:55;64.57;;;38.50;;
77055;SDS011;67471;44.918;8.614;2023-11-21T17:00:59;68.38;;;37.90;;
77055;SDS011;67471;44.918;8.614;2023-11-21T17:04:03;71.43;;;40.10;;
77055;SDS011;67471;44.918;8.614;2023-11-21T17:07:07;64.40;;;37.50;;
77055;SDS011;67471;44.918;8.614;2023-11-21T17:10:15;67.85;;;38.67;;
77055;SDS011;67471;44.918;8.614;2023-11-21T17:13:19;68.15;;;38.80;;
77055;SDS011;67471;44.918;8.614;2023-11-21T17:16:23;70.85;;;41.80;;
77055;SDS011;67471;44.918;8.614;2023-11-21T17:19:27;91.50;;;49.80;;
77055;SDS011;67471;44.918;8.614;2023-11-21T17:22:35;165.47;;;86.03;;
77055;SDS011;67471;44.918;8.614;2023-11-21T17:25:39;147.32;;;88.40;;
77055;SDS011;67471;44.918;8.614;2023-11-21T17:28:43;105.55;;;62.95;;
77055;SDS011;67471;44.918;8.614;2023-11-21T17:31:47;80.30;;;47.22;;
77055;SDS011;67471;44.918;8.614;2023-11-21T17:34:51;72.65;;;42.20;;
77055;SDS011;67471;44.918;8.614;2023-11-21T17:37:55;67.50;;;40.05;;
77055;SDS011;67471;44.918;8.614;2023-11-21T17:40:59;73.45;;;42.50;;
77055;SDS011;67471;44.918;8.614;2023-11-21T17:44:03;71.55;;;40.83;;
77055;SDS011;67471;44.918;8.614;2023-11-21T17:47:07;66.95;;;38.35;;
77055;SDS011;67471;44.918;8.614;2023-11-21T17:50:12;67.82;;;40.45;;
77055;SDS011;67471;44.918;8.614;2023-11-21T17:53:16;66.82;;;40.35;;
77055;SDS011;67471;44.918;8.614;2023-11-21T17:56:20;72.07;;;40.78;;
77055;SDS011;67471;44.918;8.614;2023-11-21T17:59:24;71.50;;;40.88;;
77055;SDS011;67471;44.918;8.614;2023-11-21T18:02:27;66.22;;;38.88;;
77055;SDS011;67471;44.918;8.614;2023-11-21T18:05:34;68.20;;;41.28;;
77055;SDS011;67471;44.918;8.614;2023-11-21T18:08:40;69.13;;;42.60;;
77055;SDS011;67471;44.918;8.614;2023-11-21T18:11:45;72.68;;;41.00;;
77055;SDS011;67471;44.918;8.614;2023-11-21T18:14:49;69.60;;;39.70;;
77055;SDS011;67471;44.918;8.614;2023-11-21T18:17:54;65.35;;;38.78;;
77055;SDS011;67471;44.918;8.614;2023-11-21T18:20:58;66.85;;;40.05;;
77055;SDS011;67471;44.918;8.614;2023-11-21T18:24:01;73.55;;;41.30;;
77055;SDS011;67471;44.918;8.614;2023-11-21T18:27:05;68.03;;;40.80;;